Time;durP1;ratioP1;P1;durP2;ratioP2;P2;SDS_P1;SDS_P2;PMS_P1;PMS_P2;Temp;Humidity;BMP_temperature;BMP_pressure;BME280_temperature;BME280_humidity;BME280_pressure;Samples;Min_cycle;Max_cycle;Signal;HPM_P1;HPM_P2
2022/10/09 00:00:38;;;;;;;5.70;3.30;;;9.70;99.90;;;;;;5023308;28;20801;-80
2022/10/09 00:03:05;;;;;;;5.23;3.20;;;9.70;99.90;;;;;;5023901;28;20448;-81
2022/10/09 00:05:32;;;;;;;6.07;3.70;;;9.70;99.90;;;;;;5023535;28;20468;-81
2022/10/09 00:08:00;;;;;;;4.83;3.00;;;9.70;99.90;;;;;;5020301;28;20791;-81
2022/10/09 00:10:27;;;;;;;10.27;3.50;;;9.70;99.90;;;;;;5017933;28;20816;-80
2022/10/09 00:12:54;;;;;;;8.47;3.93;;;9.70;99.90;;;;;;5018260;28;20451;-81
2022/10/09 00:15:20;;;;;;;5.97;2.57;;;9.70;99.90;;;;;;5016916;28;20483;-81
2022/10/09 00:17:47;;;;;;;8.47;4.07;;;9.70;99.90;;;;;;5018605;28;20458;-81
2022/10/09 00:20:14;;;;;;;5.80;3.33;;;9.70;99.90;;;;;;5024986;28;20468;-81
2022/10/09 00:22:42;;;;;;;9.00;4.30;;;9.60;99.90;;;;;;5023441;28;20450;-80
2022/10/09 00:25:10;;;;;;;5.47;3.80;;;9.40;99.90;;;;;;5026904;28;20968;-80
2022/10/09 00:27:37;;;;;;;7.30;4.53;;;9.60;99.90;;;;;;5025185;28;20431;-80
2022/10/09 00:30:04;;;;;;;5.90;3.80;;;9.50;99.90;;;;;;5025741;28;20849;-80
2022/10/09 00:32:31;;;;;;;4.03;3.60;;;9.60;99.90;;;;;;5025473;28;20431;-80
2022/10/09 00:34:57;;;;;;;3.73;3.30;;;9.80;99.90;;;;;;5025417;28;20428;-80
2022/10/09 00:37:24;;;;;;;5.30;3.03;;;9.50;99.90;;;;;;5017437;28;20487;-80
2022/10/09 00:39:51;;;;;;;6.27;3.00;;;9.50;99.90;;;;;;5017086;28;20447;-81
2022/10/09 00:42:20;;;;;;;5.90;3.23;;;9.50;99.90;;;;;;5015845;28;20502;-80
2022/10/09 00:44:56;;;;;;;6.63;2.20;;;9.60;99.90;;;;;;5016024;28;20475;-80
2022/10/09 00:47:27;;;;;;;5.60;3.20;;;9.60;99.90;;;;;;5015635;28;20762;-80
2022/10/09 00:49:58;;;;;;;9.40;3.20;;;9.50;99.90;;;;;;5016000;28;20500;-81
2022/10/09 00:52:26;;;;;;;5.73;3.50;;;9.40;99.90;;;;;;5015300;28;20433;-81
2022/10/09 00:54:54;;;;;;;8.17;3.53;;;9.60;99.90;;;;;;5015388;28;20448;-80
2022/10/09 00:57:22;;;;;;;5.50;3.10;;;9.50;99.90;;;;;;5015656;28;20457;-80
2022/10/09 00:59:49;;;;;;;3.60;3.00;;;9.40;99.90;;;;;;5015736;28;20455;-80
2022/10/09 01:02:16;;;;;;;4.07;2.97;;;9.40;99.90;;;;;;5015236;28;20455;-81
2022/10/09 01:04:43;;;;;;;4.77;3.10;;;9.50;99.90;;;;;;5015459;28;20414;-80
2022/10/09 01:07:22;;;;;;;4.40;2.90;;;9.50;99.90;;;;;;5016262;28;20993;-81
2022/10/09 01:09:56;;;;;;;2.27;2.17;;;9.50;99.90;;;;;;5019757;28;20410;-80
2022/10/09 01:12:36;;;;;;;5.33;3.30;;;9.50;99.90;;;;;;5023157;28;20463;-80
2022/10/09 01:15:10;;;;;;;8.10;3.87;;;9.10;99.90;;;;;;5016938;28;20456;-81
2022/10/09 01:17:43;;;;;;;9.27;3.77;;;9.40;99.90;;;;;;5016354;28;20445;-80
2022/10/09 01:20:33;;;;;;;6.50;3.80;;;9.50;99.90;;;;;;5014771;28;20406;-80
2022/10/09 01:23:29;;;;;;;5.33;3.87;;;9.40;99.90;;;;;;5015144;28;20428;-80
2022/10/09 01:26:09;;;;;;;8.53;3.70;;;9.40;99.90;;;;;;5015414;28;20472;-80
2022/10/09 01:28:40;;;;;;;5.47;3.43;;;9.40;99.90;;;;;;5015714;28;20413;-81
2022/10/09 01:31:09;;;;;;;3.63;2.97;;;9.40;99.90;;;;;;5015006;28;20410;-81
2022/10/09 01:33:37;;;;;;;3.73;3.07;;;9.20;99.90;;;;;;5015202;28;20443;-80
2022/10/09 01:36:06;;;;;;;5.97;2.60;;;9.20;99.90;;;;;;5014791;28;20782;-80
2022/10/09 01:38:33;;;;;;;3.73;3.00;;;9.20;99.90;;;;;;5014974;28;20541;-81
2022/10/09 01:41:03;;;;;;;3.00;2.70;;;9.20;99.90;;;;;;5015347;28;20870;-81
2022/10/09 01:43:30;;;;;;;4.50;3.93;;;9.20;99.90;;;;;;5016371;28;20944;-81
2022/10/09 01:46:23;;;;;;;3.13;2.60;;;9.10;99.90;;;;;;5026738;28;20498;-80
2022/10/09 01:49:01;;;;;;;3.03;2.80;;;9.20;99.90;;;;;;5029542;28;20443;-79
2022/10/09 01:51:35;;;;;;;3.80;2.27;;;9.20;99.90;;;;;;5029388;28;20877;-79
2022/10/09 01:54:04;;;;;;;6.20;3.20;;;9.20;99.90;;;;;;5031677;28;20430;-79
2022/10/09 01:56:36;;;;;;;5.97;2.63;;;9.20;99.90;;;;;;5029834;28;20455;-79
2022/10/09 01:59:07;;;;;;;2.70;2.50;;;9.30;99.90;;;;;;5016434;28;20430;-79
2022/10/09 02:01:38;;;;;;;8.30;2.83;;;9.30;99.90;;;;;;5015741;28;20411;-80
2022/10/09 02:04:08;;;;;;;4.20;2.00;;;9.30;99.90;;;;;;5016781;28;20504;-79
2022/10/09 02:06:39;;;;;;;4.30;2.30;;;9.20;99.90;;;;;;5014935;28;20442;-79
2022/10/09 02:09:11;;;;;;;7.50;3.00;;;9.20;99.90;;;;;;5015401;28;20514;-79
2022/10/09 02:11:41;;;;;;;13.53;3.00;;;9.20;99.90;;;;;;5015489;28;20442;-79
2022/10/09 02:14:08;;;;;;;4.67;3.00;;;9.20;99.90;;;;;;5015762;28;20874;-79
2022/10/09 02:16:39;;;;;;;7.60;2.70;;;9.30;99.90;;;;;;5015669;28;20463;-79
2022/10/09 02:19:11;;;;;;;3.53;2.10;;;9.20;99.90;;;;;;5018755;28;20428;-79
2022/10/09 02:21:42;;;;;;;5.87;2.50;;;9.20;99.90;;;;;;5018526;28;20443;-79
2022/10/09 02:24:13;;;;;;;6.10;2.73;;;9.30;99.90;;;;;;5018693;28;20462;-79
2022/10/09 02:26:41;;;;;;;3.10;2.00;;;9.10;99.90;;;;;;5018206;28;20460;-79
2022/10/09 02:29:08;;;;;;;3.50;2.07;;;9.10;99.90;;;;;;5020816;28;20453;-79
2022/10/09 02:31:39;;;;;;;5.00;2.33;;;9.10;99.90;;;;;;5027032;28;20452;-79
2022/10/09 02:34:08;;;;;;;6.23;3.47;;;9.10;99.90;;;;;;5027561;28;20406;-79
2022/10/09 02:36:35;;;;;;;5.77;2.93;;;9.00;99.90;;;;;;5028624;28;20475;-79
2022/10/09 02:39:03;;;;;;;4.73;3.13;;;9.00;99.90;;;;;;5027899;28;20554;-79
2022/10/09 02:41:29;;;;;;;6.63;3.00;;;9.00;99.90;;;;;;5025557;28;20455;-80
2022/10/09 02:43:56;;;;;;;9.00;3.40;;;9.00;99.90;;;;;;5026753;28;20451;-80
2022/10/09 02:46:23;;;;;;;7.30;3.80;;;8.90;99.90;;;;;;5023147;28;20461;-80
2022/10/09 02:48:51;;;;;;;8.70;3.33;;;9.00;99.90;;;;;;5018249;28;20451;-79
2022/10/09 02:51:18;;;;;;;6.33;3.10;;;8.90;99.90;;;;;;5017752;28;20426;-80
2022/10/09 02:53:45;;;;;;;8.30;2.90;;;8.90;99.90;;;;;;5018165;28;20418;-80
2022/10/09 02:56:11;;;;;;;6.13;2.73;;;9.00;99.90;;;;;;5017714;28;20553;-81
2022/10/09 02:58:39;;;;;;;9.40;2.80;;;9.00;99.90;;;;;;5017101;28;20494;-79
2022/10/09 03:01:07;;;;;;;7.63;2.77;;;8.90;99.90;;;;;;5017631;28;20509;-79
2022/10/09 03:03:34;;;;;;;6.87;2.70;;;8.90;99.90;;;;;;5017385;28;20453;-81
2022/10/09 03:06:03;;;;;;;6.63;2.97;;;8.90;99.90;;;;;;5017302;28;20480;-80
2022/10/09 03:08:30;;;;;;;4.50;3.10;;;9.00;99.90;;;;;;5017205;28;20475;-80
2022/10/09 03:10:56;;;;;;;4.07;2.47;;;8.90;99.90;;;;;;5017078;28;20426;-80
2022/10/09 03:13:23;;;;;;;11.20;3.20;;;8.90;99.90;;;;;;5017364;28;20476;-80
2022/10/09 03:15:50;;;;;;;5.53;2.90;;;8.90;99.90;;;;;;5017837;28;20464;-80
2022/10/09 03:18:16;;;;;;;7.97;3.30;;;8.90;99.90;;;;;;5017377;28;20472;-80
2022/10/09 03:20:43;;;;;;;5.77;3.60;;;8.80;99.90;;;;;;5016839;28;20482;-79
2022/10/09 03:23:11;;;;;;;2.40;2.00;;;8.80;99.90;;;;;;5023581;28;20426;-80
2022/10/09 03:25:38;;;;;;;3.93;2.90;;;8.80;99.90;;;;;;5023278;28;20483;-80
2022/10/09 03:28:05;;;;;;;7.07;2.77;;;8.70;99.90;;;;;;5023469;28;20414;-80
2022/10/09 03:30:31;;;;;;;4.30;2.43;;;8.80;99.90;;;;;;5017704;28;20422;-80
2022/10/09 03:32:58;;;;;;;7.90;3.30;;;8.80;99.90;;;;;;5016392;28;20455;-80
2022/10/09 03:35:25;;;;;;;6.00;2.67;;;8.80;99.90;;;;;;5017184;28;20442;-80
2022/10/09 03:37:51;;;;;;;6.27;2.37;;;8.70;99.90;;;;;;5016884;28;21012;-80
2022/10/09 03:40:19;;;;;;;8.07;2.70;;;8.70;99.90;;;;;;5016745;28;20418;-81
2022/10/09 03:42:46;;;;;;;7.67;3.10;;;8.70;99.90;;;;;;5016522;28;20447;-80
2022/10/09 03:45:13;;;;;;;6.20;2.57;;;8.60;99.90;;;;;;5017588;28;20482;-81
2022/10/09 03:47:39;;;;;;;9.13;2.53;;;8.50;99.90;;;;;;5016711;28;20449;-80
2022/10/09 03:50:07;;;;;;;3.70;2.80;;;8.50;99.90;;;;;;5016756;28;20458;-79
2022/10/09 03:52:35;;;;;;;7.23;2.87;;;8.60;99.90;;;;;;5016777;28;20451;-79
2022/10/09 03:55:02;;;;;;;7.70;2.60;;;8.80;99.90;;;;;;5016681;28;20447;-80
2022/10/09 03:57:30;;;;;;;6.40;2.83;;;8.70;99.90;;;;;;5017976;28;20486;-79
2022/10/09 03:59:56;;;;;;;4.77;2.20;;;8.70;99.90;;;;;;5022925;28;20414;-81
2022/10/09 04:02:23;;;;;;;6.50;2.90;;;8.60;99.90;;;;;;5022898;28;20451;-80
2022/10/09 04:04:50;;;;;;;6.03;3.37;;;8.60;99.90;;;;;;5017441;28;20480;-80
2022/10/09 04:07:16;;;;;;;8.07;4.43;;;8.60;99.90;;;;;;5016719;28;20867;-80
2022/10/09 04:09:43;;;;;;;12.70;5.00;;;8.60;99.90;;;;;;5016883;28;20451;-80
2022/10/09 04:12:10;;;;;;;17.00;8.37;;;8.60;99.90;;;;;;5016452;28;20422;-80
2022/10/09 04:14:38;;;;;;;14.10;7.60;;;8.60;99.90;;;;;;5016837;28;20789;-80
2022/10/09 04:17:04;;;;;;;8.23;3.63;;;8.70;99.90;;;;;;5016428;28;21046;-80
2022/10/09 04:19:31;;;;;;;6.10;4.33;;;8.60;99.90;;;;;;5016060;28;20821;-80
2022/10/09 04:21:58;;;;;;;5.27;3.30;;;8.60;99.90;;;;;;5015899;28;20458;-81
2022/10/09 04:24:24;;;;;;;7.80;3.40;;;8.60;99.90;;;;;;5015934;28;20443;-81
2022/10/09 04:26:51;;;;;;;5.23;2.73;;;8.50;99.90;;;;;;5015600;28;20457;-80
2022/10/09 04:29:18;;;;;;;5.13;3.67;;;8.50;99.90;;;;;;5015876;28;20454;-80
2022/10/09 04:31:46;;;;;;;8.23;4.33;;;8.50;99.90;;;;;;5015580;28;20422;-80
2022/10/09 04:34:12;;;;;;;6.83;4.73;;;8.40;99.90;;;;;;5015990;28;20936;-80
2022/10/09 04:36:39;;;;;;;10.17;5.27;;;8.30;99.90;;;;;;5016954;28;20502;-81
2022/10/09 04:39:06;;;;;;;11.10;4.20;;;8.30;99.90;;;;;;5022393;28;20483;-80
2022/10/09 04:41:33;;;;;;;6.40;2.80;;;8.30;99.90;;;;;;5023841;28;20938;-80
2022/10/09 04:44:00;;;;;;;5.03;4.50;;;8.30;99.90;;;;;;5024993;28;20426;-80
2022/10/09 04:46:26;;;;;;;7.77;3.47;;;8.30;99.90;;;;;;5020440;28;20450;-80
2022/10/09 04:48:54;;;;;;;8.00;4.70;;;8.30;99.90;;;;;;5015886;28;20788;-80
2022/10/09 04:51:21;;;;;;;6.10;3.80;;;8.20;99.90;;;;;;5016385;28;20450;-80
2022/10/09 04:53:48;;;;;;;10.70;4.50;;;8.20;99.90;;;;;;5014683;28;20917;-81
2022/10/09 04:56:17;;;;;;;4.00;2.80;;;8.20;99.90;;;;;;5016288;28;20315;-80
2022/10/09 04:58:44;;;;;;;6.30;3.13;;;8.10;99.90;;;;;;5016053;28;20483;-80
2022/10/09 05:01:14;;;;;;;7.27;2.80;;;8.10;99.90;;;;;;5017278;28;20528;-80
2022/10/09 05:03:40;;;;;;;9.40;3.00;;;8.10;99.90;;;;;;5025450;28;20459;-80
2022/10/09 05:06:11;;;;;;;3.40;3.10;;;8.10;99.90;;;;;;5018031;28;20445;-80
2022/10/09 05:08:38;;;;;;;8.98;3.38;;;8.20;99.90;;;;;;5015558;28;20426;-80
2022/10/09 05:11:07;;;;;;;6.60;2.97;;;8.10;99.90;;;;;;5015552;28;20223;-80
2022/10/09 05:13:36;;;;;;;7.28;3.03;;;8.10;99.90;;;;;;5014394;28;20434;-80
2022/10/09 05:16:03;;;;;;;4.40;2.87;;;8.10;99.90;;;;;;5015246;28;20224;-80
2022/10/09 05:18:30;;;;;;;7.03;3.90;;;8.10;99.90;;;;;;5015524;28;20545;-80
2022/10/09 05:20:57;;;;;;;6.70;3.30;;;8.10;99.90;;;;;;5015833;28;20426;-80
2022/10/09 05:23:25;;;;;;;7.53;4.60;;;8.10;99.90;;;;;;5016614;28;20450;-81
2022/10/09 05:25:55;;;;;;;5.10;3.60;;;8.00;99.90;;;;;;5014788;28;20486;-80
2022/10/09 05:28:22;;;;;;;5.63;3.13;;;7.90;99.90;;;;;;5016109;28;20479;-80
2022/10/09 05:30:49;;;;;;;4.18;3.55;;;7.90;99.90;;;;;;5020585;28;20240;-80
2022/10/09 05:33:16;;;;;;;3.50;2.80;;;7.80;99.90;;;;;;5030108;28;20204;-80
2022/10/09 05:35:50;;;;;;;4.50;3.57;;;7.80;99.90;;;;;;5029845;28;20232;-80
2022/10/09 05:38:16;;;;;;;5.20;3.10;;;7.80;99.90;;;;;;5028659;28;20470;-80
2022/10/09 05:40:51;;;;;;;6.20;3.90;;;7.80;99.90;;;;;;5030449;28;20444;-80
2022/10/09 05:43:18;;;;;;;5.13;3.40;;;7.70;99.90;;;;;;5027528;28;20219;-80
2022/10/09 05:45:45;;;;;;;3.13;2.83;;;7.70;99.90;;;;;;5028716;28;20231;-80
2022/10/09 05:48:11;;;;;;;5.25;3.53;;;7.70;99.90;;;;;;5026606;28;20465;-80
2022/10/09 05:50:38;;;;;;;12.33;4.13;;;7.70;99.90;;;;;;5025940;28;20271;-80
2022/10/09 05:53:05;;;;;;;3.60;3.00;;;7.70;99.90;;;;;;5028243;28;20459;-80
2022/10/09 05:55:31;;;;;;;8.48;3.78;;;7.80;99.90;;;;;;5026257;28;20223;-80
2022/10/09 05:58:00;;;;;;;8.27;3.47;;;7.70;99.90;;;;;;5024778;28;20229;-80
2022/10/09 06:00:26;;;;;;;6.85;3.40;;;7.80;99.90;;;;;;5024764;28;20204;-80
2022/10/09 06:02:53;;;;;;;7.07;3.92;;;7.80;99.90;;;;;;5025184;28;20216;-80
2022/10/09 06:05:20;;;;;;;5.30;4.00;;;7.90;99.90;;;;;;5023753;28;20251;-80
2022/10/09 06:07:47;;;;;;;7.53;3.90;;;7.90;99.90;;;;;;5024704;28;20529;-81
2022/10/09 06:10:14;;;;;;;7.10;4.80;;;8.00;99.90;;;;;;5024629;28;20204;-81
2022/10/09 06:12:41;;;;;;;4.20;3.65;;;8.00;99.90;;;;;;5023216;28;20429;-80
2022/10/09 06:15:10;;;;;;;8.00;4.45;;;8.30;99.90;;;;;;5021428;28;20258;-81
2022/10/09 06:17:36;;;;;;;10.40;4.28;;;8.10;99.90;;;;;;5019698;28;20208;-81
2022/10/09 06:20:03;;;;;;;6.00;4.00;;;8.20;99.90;;;;;;5019142;28;20228;-80
2022/10/09 06:22:30;;;;;;;16.98;4.70;;;8.20;99.90;;;;;;5018923;28;20234;-80
2022/10/09 06:24:57;;;;;;;6.25;4.47;;;;;;;;;;5017878;28;20659;-80
2022/10/09 06:27:24;;;;;;;6.28;4.40;;;8.10;99.90;;;;;;5019127;28;20200;-80
2022/10/09 06:29:52;;;;;;;6.47;4.15;;;8.10;99.90;;;;;;5018695;28;20205;-80
2022/10/09 06:32:20;;;;;;;6.70;4.27;;;8.00;99.90;;;;;;5017723;28;20213;-80
2022/10/09 06:34:46;;;;;;;5.35;4.45;;;8.00;99.90;;;;;;5026500;28;20455;-80
2022/10/09 06:37:13;;;;;;;6.03;4.70;;;7.90;99.90;;;;;;5029216;28;20224;-80
2022/10/09 06:39:40;;;;;;;6.53;4.50;;;7.90;99.90;;;;;;5027304;28;20875;-80
2022/10/09 06:42:06;;;;;;;6.20;4.60;;;8.00;99.90;;;;;;5019898;28;20509;-81
2022/10/09 06:44:33;;;;;;;7.27;3.57;;;8.10;99.90;;;;;;5018894;28;20711;-80
2022/10/09 06:47:00;;;;;;;6.27;4.33;;;8.20;99.90;;;;;;5017806;28;20838;-80
2022/10/09 06:49:28;;;;;;;9.20;4.60;;;8.20;99.90;;;;;;5017300;28;20919;-79
2022/10/09 06:51:54;;;;;;;9.60;4.23;;;8.30;99.90;;;;;;5017302;28;20728;-79
2022/10/09 06:54:21;;;;;;;10.03;4.60;;;8.40;99.90;;;;;;5017718;28;20912;-79
2022/10/09 06:56:48;;;;;;;5.53;4.77;;;8.50;99.90;;;;;;5017512;28;20476;-80
2022/10/09 06:59:14;;;;;;;5.70;3.97;;;8.50;99.90;;;;;;5017153;28;20506;-79
2022/10/09 07:01:43;;;;;;;8.83;3.90;;;8.50;99.90;;;;;;5021982;28;20451;-79
2022/10/09 07:04:11;;;;;;;7.03;4.40;;;8.50;99.90;;;;;;5023553;28;20425;-80
2022/10/09 07:06:42;;;;;;;6.67;4.50;;;8.50;99.90;;;;;;5024034;28;20446;-79
2022/10/09 07:09:12;;;;;;;10.40;4.60;;;8.50;99.90;;;;;;5019171;28;20428;-80
2022/10/09 07:11:41;;;;;;;10.37;3.93;;;8.60;99.90;;;;;;5017299;28;20447;-80
2022/10/09 07:14:10;;;;;;;4.17;3.70;;;8.80;99.90;;;;;;5017227;28;20818;-79
2022/10/09 07:16:38;;;;;;;8.90;4.00;;;9.00;99.90;;;;;;5022217;28;20467;-79
2022/10/09 07:19:07;;;;;;;4.73;3.87;;;9.10;99.90;;;;;;5019004;28;20479;-79
2022/10/09 07:21:34;;;;;;;8.00;5.27;;;9.20;99.90;;;;;;5023748;28;20447;-79
2022/10/09 07:24:04;;;;;;;8.37;3.40;;;9.10;99.90;;;;;;5022742;28;20971;-79
2022/10/09 07:26:32;;;;;;;15.23;4.90;;;9.20;99.90;;;;;;5020474;28;20504;-80
2022/10/09 07:29:00;;;;;;;6.70;5.00;;;9.20;99.90;;;;;;5021564;28;20502;-79
2022/10/09 07:31:26;;;;;;;6.63;3.60;;;9.40;99.90;;;;;;5017268;28;20451;-79
2022/10/09 07:33:55;;;;;;;6.23;4.20;;;9.40;99.90;;;;;;5016698;28;20513;-79
2022/10/09 07:36:22;;;;;;;6.97;4.57;;;9.40;99.90;;;;;;5016816;28;20508;-80
2022/10/09 07:38:50;;;;;;;6.70;4.50;;;9.50;99.90;;;;;;5016874;28;20479;-79
2022/10/09 07:41:19;;;;;;;5.80;5.30;;;9.50;99.90;;;;;;5017321;28;20422;-79
2022/10/09 07:43:45;;;;;;;4.50;4.10;;;9.60;99.90;;;;;;5018951;28;20451;-80
2022/10/09 07:46:14;;;;;;;10.67;4.60;;;9.50;99.90;;;;;;5020083;28;20525;-79
2022/10/09 07:48:41;;;;;;;4.70;4.27;;;9.70;99.90;;;;;;5020152;28;20746;-79
2022/10/09 07:51:09;;;;;;;10.53;4.30;;;9.60;99.90;;;;;;5017482;28;20452;-80
2022/10/09 07:53:35;;;;;;;5.83;3.80;;;9.70;99.90;;;;;;5017015;28;20456;-79
2022/10/09 07:56:03;;;;;;;6.03;4.53;;;9.80;99.90;;;;;;5016550;28;20438;-80
2022/10/09 07:58:31;;;;;;;13.13;4.60;;;9.80;99.90;;;;;;5016657;28;20517;-80
2022/10/09 08:01:03;;;;;;;10.30;4.50;;;9.90;99.90;;;;;;5016892;28;20521;-78
2022/10/09 08:03:30;;;;;;;7.90;4.60;;;10.00;99.90;;;;;;5016550;28;20460;-80
2022/10/09 08:05:57;;;;;;;9.13;4.27;;;10.00;99.90;;;;;;5016395;28;20995;-80
2022/10/09 08:08:24;;;;;;;9.33;5.00;;;10.00;99.90;;;;;;5016420;28;20468;-82
2022/10/09 08:10:51;;;;;;;6.53;4.10;;;10.10;99.90;;;;;;5017001;28;20459;-82
2022/10/09 08:13:17;;;;;;;7.70;3.80;;;10.20;99.90;;;;;;5016519;28;20818;-80
2022/10/09 08:15:45;;;;;;;7.23;3.83;;;10.20;99.90;;;;;;5016856;28;20446;-81
2022/10/09 08:18:13;;;;;;;11.27;4.47;;;10.30;99.90;;;;;;5016919;28;20451;-80
2022/10/09 08:20:39;;;;;;;10.83;4.73;;;10.30;99.90;;;;;;5016575;28;20491;-80
2022/10/09 08:23:06;;;;;;;7.90;4.13;;;10.40;99.90;;;;;;5018194;28;20451;-80
2022/10/09 08:25:34;;;;;;;7.43;4.13;;;10.40;99.90;;;;;;5017283;28;20454;-80
2022/10/09 08:28:01;;;;;;;7.40;3.80;;;10.50;99.90;;;;;;5015598;28;20855;-80
2022/10/09 08:30:27;;;;;;;5.73;3.97;;;10.50;99.90;;;;;;5016362;28;20954;-80
2022/10/09 08:32:55;;;;;;;7.93;5.13;;;11.00;99.90;;;;;;5016229;28;20459;-81
2022/10/09 08:35:22;;;;;;;8.83;4.37;;;10.70;99.90;;;;;;5017400;28;20467;-81
2022/10/09 08:37:49;;;;;;;9.57;4.27;;;10.80;99.90;;;;;;5019822;28;20455;-80
2022/10/09 08:40:18;;;;;;;10.07;4.77;;;10.80;99.90;;;;;;5019284;28;20594;-80
2022/10/09 08:42:52;;;;;;;5.50;4.87;;;10.90;99.90;;;;;;5019458;28;20509;-82
2022/10/09 08:45:20;;;;;;;13.70;4.70;;;11.00;99.90;;;;;;5020939;28;20529;-82
2022/10/09 08:47:51;;;;;;;7.47;4.47;;;11.10;99.90;;;;;;5016851;28;20518;-82
2022/10/09 08:50:22;;;;;;;11.80;4.53;;;11.30;99.90;;;;;;5016613;28;20435;-80
2022/10/09 08:52:54;;;;;;;9.83;4.03;;;11.40;46.90;;;;;;5016216;28;20432;-82
2022/10/09 08:55:24;;;;;;;6.00;3.30;;;11.50;99.90;;;;;;5015984;28;20833;-82
2022/10/09 08:57:53;;;;;;;5.90;5.03;;;11.50;1.00;;;;;;5015814;28;20484;-81
2022/10/09 09:00:22;;;;;;;7.53;4.00;;;11.60;1.00;;;;;;5016398;28;20490;-81
2022/10/09 09:03:04;;;;;;;9.30;3.97;;;11.60;1.00;;;;;;5016402;28;20843;-80
2022/10/09 09:05:39;;;;;;;10.70;4.60;;;11.60;1.00;;;;;;5016620;28;20478;-79
2022/10/09 09:08:18;;;;;;;6.23;4.20;;;11.80;1.00;;;;;;5019774;28;20406;-80
2022/10/09 09:10:52;;;;;;;4.80;3.73;;;11.80;1.00;;;;;;5021023;28;20427;-81
2022/10/09 09:13:37;;;;;;;7.50;3.90;;;11.90;1.00;;;;;;5019956;28;20462;-81
2022/10/09 09:16:11;;;;;;;5.83;3.40;;;11.90;1.00;;;;;;5023965;28;20463;-80
2022/10/09 09:18:42;;;;;;;10.17;4.50;;;11.90;99.90;;;;;;5024339;28;20439;-80
2022/10/09 09:21:23;;;;;;;6.03;3.43;;;12.00;1.00;;;;;;5025434;28;20482;-80
2022/10/09 09:23:50;;;;;;;6.20;3.23;;;12.20;99.90;;;;;;5024415;28;20914;-81
2022/10/09 09:26:19;;;;;;;4.93;3.90;;;12.30;93.60;;;;;;5025002;28;20490;-80
2022/10/09 09:28:48;;;;;;;5.00;3.23;;;12.30;1.00;;;;;;5031922;28;20474;-80
2022/10/09 09:31:18;;;;;;;5.17;2.97;;;12.30;1.00;;;;;;5031537;28;20425;-80
2022/10/09 09:33:52;;;;;;;5.33;3.20;;;12.40;99.90;;;;;;5024492;28;20450;-80
2022/10/09 09:36:24;;;;;;;13.73;4.03;;;12.50;1.00;;;;;;5020403;28;20471;-80
2022/10/09 09:38:52;;;;;;;12.23;4.30;;;12.60;1.00;;;;;;5018971;28;20460;-80
2022/10/09 09:41:19;;;;;;;5.30;3.30;;;12.60;99.90;;;;;;5019693;28;20447;-80
2022/10/09 09:43:46;;;;;;;7.50;4.00;;;12.60;1.00;;;;;;5019507;28;20470;-80
2022/10/09 09:46:16;;;;;;;5.77;2.73;;;12.70;1.00;;;;;;5019341;28;20475;-80
2022/10/09 09:48:47;;;;;;;8.47;3.73;;;12.70;1.00;;;;;;5023354;28;20474;-80
2022/10/09 09:51:17;;;;;;;6.27;3.63;;;12.80;1.00;;;;;;5023806;28;20424;-81
2022/10/09 09:53:48;;;;;;;7.27;4.27;;;12.80;99.90;;;;;;5022694;28;20431;-80
2022/10/09 09:56:16;;;;;;;9.07;6.00;;;12.90;1.00;;;;;;5020401;28;20499;-81
2022/10/09 09:58:46;;;;;;;8.60;4.70;;;12.90;99.90;;;;;;5020202;28;21010;-80
2022/10/09 10:01:22;;;;;;;9.10;4.53;;;13.00;99.90;;;;;;5019557;28;20471;-81
2022/10/09 10:03:50;;;;;;;13.53;9.00;;;13.00;99.90;;;;;;5019313;28;20448;-81
2022/10/09 10:06:22;;;;;;;7.30;5.87;;;13.10;99.90;;;;;;5020430;28;20474;-81
2022/10/09 10:08:59;;;;;;;7.17;4.40;;;13.20;1.00;;;;;;5019457;28;20436;-80
2022/10/09 10:11:26;;;;;;;5.60;4.43;;;13.20;1.00;;;;;;5020404;28;20410;-81
2022/10/09 10:13:53;;;;;;;9.57;3.60;;;13.30;99.90;;;;;;5020658;28;20447;-81
2022/10/09 10:16:23;;;;;;;3.53;3.23;;;13.30;1.00;;;;;;5019311;28;20468;-81
2022/10/09 10:18:50;;;;;;;7.13;3.50;;;13.30;99.90;;;;;;5026373;28;20438;-80
2022/10/09 10:21:19;;;;;;;6.63;3.07;;;13.40;33.60;;;;;;5029605;28;20494;-80
2022/10/09 10:23:50;;;;;;;13.43;9.43;;;13.50;1.00;;;;;;5027729;28;20422;-80
2022/10/09 10:26:25;;;;;;;21.83;6.40;;;13.60;1.00;;;;;;5020851;28;20905;-81
2022/10/09 10:28:56;;;;;;;7.53;2.67;;;13.60;1.00;;;;;;5023299;28;20428;-81
2022/10/09 10:31:38;;;;;;;8.20;2.33;;;13.60;1.00;;;;;;5025664;28;20801;-81
2022/10/09 10:34:10;;;;;;;12.83;3.23;;;13.70;1.00;;;;;;5023583;28;20458;-81
2022/10/09 10:36:36;;;;;;;8.80;2.90;;;13.70;1.00;;;;;;5022732;28;20461;-81
2022/10/09 10:39:11;;;;;;;6.90;2.40;;;13.80;1.00;;;;;;5024346;28;20469;-80
2022/10/09 10:41:44;;;;;;;6.37;1.90;;;13.80;99.90;;;;;;5026496;28;20450;-80
2022/10/09 10:44:20;;;;;;;4.07;1.97;;;13.90;1.00;;;;;;5026034;28;20412;-80
2022/10/09 10:46:53;;;;;;;5.83;2.13;;;13.80;99.90;;;;;;5024557;28;20577;-80
2022/10/09 10:49:23;;;;;;;4.97;2.87;;;13.90;1.00;;;;;;5020244;28;20470;-80
2022/10/09 10:51:58;;;;;;;4.33;1.67;;;14.00;1.00;;;;;;5018749;28;20431;-80
2022/10/09 10:54:36;;;;;;;6.17;1.90;;;14.00;99.90;;;;;;5018910;28;20440;-80
2022/10/09 10:57:12;;;;;;;3.50;1.77;;;14.10;99.90;;;;;;5021980;28;20774;-80
2022/10/09 10:59:45;;;;;;;5.00;2.50;;;14.60;99.90;;;;;;5025152;28;20467;-79
2022/10/09 11:02:38;;;;;;;7.07;2.80;;;14.20;99.90;;;;;;5025526;28;20443;-80
2022/10/09 11:05:18;;;;;;;7.57;2.53;;;14.80;99.90;;;;;;5019623;28;20427;-80
2022/10/09 11:07:56;;;;;;;10.30;2.43;;;14.50;99.90;;;;;;5019325;28;20442;-81
2022/10/09 11:10:32;;;;;;;6.80;2.00;;;14.60;99.90;;;;;;5018177;28;20459;-80
2022/10/09 11:13:06;;;;;;;4.70;2.10;;;14.50;99.90;;;;;;5018084;28;20802;-81
2022/10/09 11:15:45;;;;;;;10.70;2.30;;;14.50;99.90;;;;;;5018624;28;20471;-81
2022/10/09 11:18:27;;;;;;;5.23;2.03;;;14.40;1.00;;;;;;5018025;28;20776;-80
2022/10/09 11:21:14;;;;;;;6.30;2.20;;;14.50;99.90;;;;;;5020868;28;20467;-80
2022/10/09 11:23:56;;;;;;;3.53;1.90;;;14.70;99.90;;;;;;5025595;28;20432;-80
2022/10/09 11:26:31;;;;;;;5.73;2.10;;;14.70;99.90;;;;;;5026134;28;20533;-81
2022/10/09 11:29:03;;;;;;;5.70;1.80;;;14.80;99.90;;;;;;5025965;28;20436;-81
2022/10/09 11:31:35;;;;;;;8.90;3.23;;;14.90;99.90;;;;;;5021734;28;20428;-81
2022/10/09 11:34:07;;;;;;;4.70;2.00;;;14.90;2.80;;;;;;5018489;28;20432;-82
2022/10/09 11:36:39;;;;;;;4.87;1.80;;;14.90;1.00;;;;;;5018367;28;20434;-81
2022/10/09 11:39:12;;;;;;;6.93;2.30;;;15.00;1.00;;;;;;5018655;28;20443;-81
2022/10/09 11:41:40;;;;;;;4.17;2.20;;;15.00;1.00;;;;;;5019572;28;20467;-81
2022/10/09 11:44:33;;;;;;;7.23;3.23;;;15.00;1.00;;;;;;5024285;28;20430;-80
2022/10/09 11:47:08;;;;;;;3.27;2.70;;;15.00;1.00;;;;;;5025988;28;20463;-80
2022/10/09 11:49:43;;;;;;;5.33;1.80;;;15.10;1.00;;;;;;5026613;28;20432;-81
2022/10/09 11:52:18;;;;;;;6.10;1.73;;;15.10;1.00;;;;;;5025246;28;20442;-80
2022/10/09 11:54:45;;;;;;;6.93;1.90;;;15.20;1.00;;;;;;5025778;28;20435;-80
2022/10/09 11:57:12;;;;;;;2.80;1.40;;;15.40;99.90;;;;;;5026386;28;20463;-81
2022/10/09 11:59:41;;;;;;;10.70;4.60;;;15.10;36.00;;;;;;5026389;28;20822;-80
2022/10/09 12:02:24;;;;;;;11.33;5.73;;;15.10;1.00;;;;;;5025411;28;20609;-81
2022/10/09 12:04:52;;;;;;;5.03;3.00;;;15.10;96.90;;;;;;5026836;28;20435;-80
2022/10/09 12:07:28;;;;;;;5.33;2.60;;;15.20;1.00;;;;;;5025622;28;20451;-80
2022/10/09 12:10:00;;;;;;;3.83;2.70;;;15.20;1.00;;;;;;5027933;28;20429;-80
2022/10/09 12:12:27;;;;;;;8.93;2.73;;;15.30;1.00;;;;;;5025023;28;20432;-80
2022/10/09 12:14:55;;;;;;;4.57;2.23;;;15.00;99.90;;;;;;5024367;28;20589;-80
2022/10/09 12:17:50;;;;;;;9.50;3.97;;;15.30;1.00;;;;;;5024050;28;20554;-80
2022/10/09 12:20:20;;;;;;;10.30;4.20;;;15.20;99.90;;;;;;5022473;28;20498;-80
2022/10/09 12:22:55;;;;;;;5.97;3.50;;;15.40;1.00;;;;;;5021472;28;20542;-80
2022/10/09 12:25:40;;;;;;;8.23;3.03;;;15.40;1.00;;;;;;5020945;28;20482;-81
2022/10/09 12:28:19;;;;;;;5.10;1.93;;;15.40;1.00;;;;;;5019134;28;20439;-80
2022/10/09 12:30:48;;;;;;;9.30;2.13;;;15.30;1.00;;;;;;5018093;28;20497;-80
2022/10/09 12:33:22;;;;;;;2.27;1.50;;;15.10;1.00;;;;;;5017933;28;20497;-80
2022/10/09 12:36:01;;;;;;;3.87;1.70;;;15.20;1.00;;;;;;5023152;28;20468;-80
2022/10/09 12:38:30;;;;;;;4.37;2.07;;;15.20;1.00;;;;;;5021505;28;20431;-80
2022/10/09 12:41:00;;;;;;;5.83;1.80;;;15.30;1.00;;;;;;5020057;28;20465;-80
2022/10/09 12:43:27;;;;;;;5.97;2.33;;;15.40;1.00;;;;;;5017710;28;20459;-80
2022/10/09 12:45:55;;;;;;;6.67;2.00;;;15.40;1.00;;;;;;5019161;28;20471;-80
2022/10/09 12:48:24;;;;;;;8.30;2.63;;;15.40;1.00;;;;;;5021650;28;20509;-81
2022/10/09 12:50:52;;;;;;;6.97;2.40;;;15.40;1.00;;;;;;5020931;28;20447;-81
2022/10/09 12:53:21;;;;;;;5.13;1.80;;;15.30;1.00;;;;;;5017404;28;20447;-80
2022/10/09 12:55:50;;;;;;;6.60;1.77;;;15.20;1.00;;;;;;5016171;28;20852;-80
2022/10/09 12:58:20;;;;;;;7.70;3.33;;;15.10;1.00;;;;;;5018043;28;20444;-80
2022/10/09 13:00:48;;;;;;;5.17;3.30;;;15.10;1.00;;;;;;5020923;28;20531;-80
2022/10/09 13:03:25;;;;;;;20.00;14.13;;;15.20;1.00;;;;;;5019517;28;20513;-80
2022/10/09 13:05:53;;;;;;;6.40;3.90;;;15.20;1.00;;;;;;5020085;28;20471;-80
2022/10/09 13:08:25;;;;;;;6.83;3.70;;;15.30;39.30;;;;;;5021487;28;20447;-80